Disclaimer

Please do not use the information listed here in-flight or in-navigation, as they are not provided to us by the airports but are provided by volunteers, so they might be outdated.

Search


Regions


Airport information page

No radio frequency information is available.

Airport informations:
Latitude: 00° 05' 10.10" S
Longitude: 034° 43' 44.01" E
Elevation: 3796 feet - 1157 meters
Operating hours: Remarks
Operating agency: Civil government, landing fees and diplomatic clearance may be required
Timezone: UTC+3
Fuel: N/A

Runway information:
07/25 - 6511 x 98 feet< - >1985 x 30 meters

Recent METARs:
HKKI 131800Z 00000KT 9999 FEW021CB BKN080 22/18 Q1015
HKKI 131900Z 34005KT 9999 FEW021CB BKN080 21/18 Q1015
HKKI 132000Z 03003KT 9999 FEW020CB SCT080 21/18 Q1016

Airport on the map: